KOAR/OAR METAR and TAF weather

Enter ICAO airport designator
Station Type Date Time Source
KOAR METAR 2021/05/17 21:35 UTC NOAA

KOAR 172135Z AUTO 28011G15KT 10SM CLR 13/08 A3011 RMK AO2


Station Type Date Time Source
KOAR Decoded METAR 2021/05/17 21:35 UTC NOAA

Station name not available
May 17, 2021 - 05:35 PM EDT / 2021.05.17 2135 UTC
Wind: from the W (280 degrees) at 13 MPH (11 KT) gusting to 17 MPH (15 KT):0
Visibility: 10 mile(s):0
Sky conditions: clear
Temperature: 55 F (13 C)
Dew Point: 46 F (8 C)
Relative Humidity: 71%
Pressure (altimeter): 30.11 in. Hg (1019 hPa)
ob: KOAR 172135Z AUTO 28011G15KT 10SM CLR 13/08 A3011 RMK AO2
cycle: 21

Station Type Date Time Source
KOAR TAF UTC NOAA

Error!

Example: see airport list